sensor_id;sensor_type;location;lat;lon;timestamp;P1;durP1;ratioP1;P2;durP2;ratioP2
19260;SDS011;9764;48.114;11.670;2023-04-16T00:02:14;0.50;;;0.50;;
19260;SDS011;9764;48.114;11.670;2023-04-16T00:04:43;0.60;;;0.60;;
19260;SDS011;9764;48.114;11.670;2023-04-16T00:07:11;0.50;;;0.50;;
19260;SDS011;9764;48.114;11.670;2023-04-16T00:09:39;0.50;;;0.50;;
19260;SDS011;9764;48.114;11.670;2023-04-16T00:12:08;0.60;;;0.60;;
19260;SDS011;9764;48.114;11.670;2023-04-16T00:14:36;0.70;;;0.50;;
19260;SDS011;9764;48.114;11.670;2023-04-16T00:17:06;0.57;;;0.57;;
19260;SDS011;9764;48.114;11.670;2023-04-16T00:19:34;0.50;;;0.50;;
19260;SDS011;9764;48.114;11.670;2023-04-16T00:22:03;0.82;;;0.50;;
19260;SDS011;9764;48.114;11.670;2023-04-16T00:24:31;1.08;;;0.60;;
19260;SDS011;9764;48.114;11.670;2023-04-16T00:26:59;0.50;;;0.50;;
19260;SDS011;9764;48.114;11.670;2023-04-16T00:29:29;0.77;;;0.70;;
19260;SDS011;9764;48.114;11.670;2023-04-16T00:31:57;0.68;;;0.60;;
19260;SDS011;9764;48.114;11.670;2023-04-16T00:34:27;0.40;;;0.40;;
19260;SDS011;9764;48.114;11.670;2023-04-16T00:36:55;0.88;;;0.52;;
19260;SDS011;9764;48.114;11.670;2023-04-16T00:39:24;0.60;;;0.60;;
19260;SDS011;9764;48.114;11.670;2023-04-16T00:41:52;0.50;;;0.50;;
19260;SDS011;9764;48.114;11.670;2023-04-16T00:44:20;0.60;;;0.60;;
19260;SDS011;9764;48.114;11.670;2023-04-16T00:46:48;0.50;;;0.50;;
19260;SDS011;9764;48.114;11.670;2023-04-16T00:49:17;0.40;;;0.40;;
19260;SDS011;9764;48.114;11.670;2023-04-16T00:51:47;0.68;;;0.55;;
19260;SDS011;9764;48.114;11.670;2023-04-16T00:54:16;0.45;;;0.45;;
19260;SDS011;9764;48.114;11.670;2023-04-16T00:56:45;0.55;;;0.55;;
19260;SDS011;9764;48.114;11.670;2023-04-16T00:59:14;0.60;;;0.60;;
19260;SDS011;9764;48.114;11.670;2023-04-16T01:01:42;0.50;;;0.50;;
19260;SDS011;9764;48.114;11.670;2023-04-16T01:04:11;0.40;;;0.40;;
19260;SDS011;9764;48.114;11.670;2023-04-16T01:06:41;0.50;;;0.50;;
19260;SDS011;9764;48.114;11.670;2023-04-16T01:09:11;0.50;;;0.50;;
19260;SDS011;9764;48.114;11.670;2023-04-16T01:11:39;1.20;;;0.50;;
19260;SDS011;9764;48.114;11.670;2023-04-16T01:14:08;0.70;;;0.60;;
19260;SDS011;9764;48.114;11.670;2023-04-16T01:16:36;0.60;;;0.60;;
19260;SDS011;9764;48.114;11.670;2023-04-16T01:19:05;0.93;;;0.70;;
19260;SDS011;9764;48.114;11.670;2023-04-16T01:21:35;0.50;;;0.50;;
19260;SDS011;9764;48.114;11.670;2023-04-16T01:24:03;0.60;;;0.60;;
19260;SDS011;9764;48.114;11.670;2023-04-16T01:26:32;0.40;;;0.40;;
19260;SDS011;9764;48.114;11.670;2023-04-16T01:29:01;0.40;;;0.40;;
19260;SDS011;9764;48.114;11.670;2023-04-16T01:31:29;0.40;;;0.40;;
19260;SDS011;9764;48.114;11.670;2023-04-16T01:34:04;0.50;;;0.50;;
19260;SDS011;9764;48.114;11.670;2023-04-16T01:36:33;0.47;;;0.47;;
19260;SDS011;9764;48.114;11.670;2023-04-16T01:39:03;0.40;;;0.40;;
19260;SDS011;9764;48.114;11.670;2023-04-16T01:41:31;0.50;;;0.50;;
19260;SDS011;9764;48.114;11.670;2023-04-16T01:44:00;0.43;;;0.40;;
19260;SDS011;9764;48.114;11.670;2023-04-16T01:46:29;0.57;;;0.57;;
19260;SDS011;9764;48.114;11.670;2023-04-16T01:48:59;0.40;;;0.40;;
19260;SDS011;9764;48.114;11.670;2023-04-16T01:51:28;0.40;;;0.40;;
19260;SDS011;9764;48.114;11.670;2023-04-16T01:53:58;0.40;;;0.40;;
19260;SDS011;9764;48.114;11.670;2023-04-16T01:56:26;0.40;;;0.40;;
19260;SDS011;9764;48.114;11.670;2023-04-16T01:58:54;0.50;;;0.50;;
19260;SDS011;9764;48.114;11.670;2023-04-16T02:01:25;0.77;;;0.60;;
19260;SDS011;9764;48.114;11.670;2023-04-16T02:03:54;0.50;;;0.50;;
19260;SDS011;9764;48.114;11.670;2023-04-16T02:06:23;0.60;;;0.60;;
19260;SDS011;9764;48.114;11.670;2023-04-16T02:08:53;0.55;;;0.55;;
19260;SDS011;9764;48.114;11.670;2023-04-16T02:11:22;0.50;;;0.50;;
19260;SDS011;9764;48.114;11.670;2023-04-16T02:13:51;0.50;;;0.50;;
19260;SDS011;9764;48.114;11.670;2023-04-16T02:16:19;0.40;;;0.40;;
19260;SDS011;9764;48.114;11.670;2023-04-16T02:18:51;0.40;;;0.40;;
19260;SDS011;9764;48.114;11.670;2023-04-16T02:21:21;0.40;;;0.40;;
19260;SDS011;9764;48.114;11.670;2023-04-16T02:23:49;0.50;;;0.50;;
19260;SDS011;9764;48.114;11.670;2023-04-16T02:26:25;1.48;;;0.47;;
19260;SDS011;9764;48.114;11.670;2023-04-16T02:28:58;0.75;;;0.60;;
19260;SDS011;9764;48.114;11.670;2023-04-16T02:31:34;1.13;;;0.40;;
19260;SDS011;9764;48.114;11.670;2023-04-16T02:34:03;0.40;;;0.40;;
19260;SDS011;9764;48.114;11.670;2023-04-16T02:36:32;0.50;;;0.43;;
19260;SDS011;9764;48.114;11.670;2023-04-16T02:39:00;0.55;;;0.52;;
19260;SDS011;9764;48.114;11.670;2023-04-16T02:41:30;0.45;;;0.45;;
19260;SDS011;9764;48.114;11.670;2023-04-16T02:43:58;0.57;;;0.57;;
19260;SDS011;9764;48.114;11.670;2023-04-16T02:46:27;0.40;;;0.40;;
19260;SDS011;9764;48.114;11.670;2023-04-16T02:48:55;0.45;;;0.45;;
19260;SDS011;9764;48.114;11.670;2023-04-16T02:51:23;0.43;;;0.43;;
19260;SDS011;9764;48.114;11.670;2023-04-16T02:53:52;0.50;;;0.50;;
19260;SDS011;9764;48.114;11.670;2023-04-16T02:56:20;0.50;;;0.50;;
19260;SDS011;9764;48.114;11.670;2023-04-16T02:58:49;0.63;;;0.50;;
19260;SDS011;9764;48.114;11.670;2023-04-16T03:01:18;1.20;;;0.52;;
19260;SDS011;9764;48.114;11.670;2023-04-16T03:03:46;0.50;;;0.50;;
19260;SDS011;9764;48.114;11.670;2023-04-16T03:06:15;0.40;;;0.40;;
19260;SDS011;9764;48.114;11.670;2023-04-16T03:08:43;0.40;;;0.40;;
19260;SDS011;9764;48.114;11.670;2023-04-16T03:11:11;0.80;;;0.43;;
19260;SDS011;9764;48.114;11.670;2023-04-16T03:13:39;0.50;;;0.50;;
19260;SDS011;9764;48.114;11.670;2023-04-16T03:16:10;0.82;;;0.50;;
19260;SDS011;9764;48.114;11.670;2023-04-16T03:18:38;0.82;;;0.57;;
19260;SDS011;9764;48.114;11.670;2023-04-16T03:21:06;0.40;;;0.40;;
19260;SDS011;9764;48.114;11.670;2023-04-16T03:23:34;0.57;;;0.57;;
19260;SDS011;9764;48.114;11.670;2023-04-16T03:26:03;0.32;;;0.32;;
19260;SDS011;9764;48.114;11.670;2023-04-16T03:28:32;0.60;;;0.50;;
19260;SDS011;9764;48.114;11.670;2023-04-16T03:31:00;1.88;;;0.80;;
19260;SDS011;9764;48.114;11.670;2023-04-16T03:33:30;1.50;;;0.57;;
19260;SDS011;9764;48.114;11.670;2023-04-16T03:35:58;1.23;;;0.80;;
19260;SDS011;9764;48.114;11.670;2023-04-16T03:38:29;2.15;;;0.85;;
19260;SDS011;9764;48.114;11.670;2023-04-16T03:40:58;3.30;;;1.33;;
19260;SDS011;9764;48.114;11.670;2023-04-16T03:43:29;2.05;;;1.08;;
19260;SDS011;9764;48.114;11.670;2023-04-16T03:45:57;3.58;;;1.55;;
19260;SDS011;9764;48.114;11.670;2023-04-16T03:48:25;3.20;;;1.45;;
19260;SDS011;9764;48.114;11.670;2023-04-16T03:50:55;5.53;;;1.90;;
19260;SDS011;9764;48.114;11.670;2023-04-16T03:53:24;5.72;;;2.33;;
19260;SDS011;9764;48.114;11.670;2023-04-16T03:55:52;9.07;;;3.22;;
19260;SDS011;9764;48.114;11.670;2023-04-16T03:58:21;6.03;;;3.33;;
19260;SDS011;9764;48.114;11.670;2023-04-16T04:00:51;9.15;;;3.85;;
19260;SDS011;9764;48.114;11.670;2023-04-16T04:03:20;10.38;;;4.50;;
19260;SDS011;9764;48.114;11.670;2023-04-16T04:05:49;12.48;;;4.80;;
19260;SDS011;9764;48.114;11.670;2023-04-16T04:08:25;10.00;;;4.30;;
19260;SDS011;9764;48.114;11.670;2023-04-16T04:10:53;13.45;;;4.90;;
19260;SDS011;9764;48.114;11.670;2023-04-16T04:13:23;13.40;;;5.70;;
19260;SDS011;9764;48.114;11.670;2023-04-16T04:15:51;14.02;;;5.78;;
19260;SDS011;9764;48.114;11.670;2023-04-16T04:18:21;11.93;;;6.00;;
19260;SDS011;9764;48.114;11.670;2023-04-16T04:20:50;14.23;;;6.05;;
19260;SDS011;9764;48.114;11.670;2023-04-16T04:23:22;16.55;;;6.95;;
19260;SDS011;9764;48.114;11.670;2023-04-16T04:25:51;16.55;;;6.70;;
19260;SDS011;9764;48.114;11.670;2023-04-16T04:28:20;13.35;;;6.45;;
19260;SDS011;9764;48.114;11.670;2023-04-16T04:30:48;15.40;;;7.13;;
19260;SDS011;9764;48.114;11.670;2023-04-16T04:33:17;17.52;;;6.55;;
19260;SDS011;9764;48.114;11.670;2023-04-16T04:35:46;14.05;;;7.32;;
19260;SDS011;9764;48.114;11.670;2023-04-16T04:38:15;18.48;;;8.18;;
19260;SDS011;9764;48.114;11.670;2023-04-16T04:40:45;18.20;;;8.40;;
19260;SDS011;9764;48.114;11.670;2023-04-16T04:43:16;18.83;;;8.80;;
19260;SDS011;9764;48.114;11.670;2023-04-16T04:45:45;14.20;;;6.97;;
19260;SDS011;9764;48.114;11.670;2023-04-16T04:48:15;19.02;;;8.05;;
19260;SDS011;9764;48.114;11.670;2023-04-16T04:50:45;18.35;;;8.55;;
19260;SDS011;9764;48.114;11.670;2023-04-16T04:53:13;17.83;;;8.13;;
19260;SDS011;9764;48.114;11.670;2023-04-16T04:55:41;17.05;;;8.07;;
19260;SDS011;9764;48.114;11.670;2023-04-16T04:58:10;16.42;;;8.18;;
19260;SDS011;9764;48.114;11.670;2023-04-16T05:00:41;16.73;;;8.55;;
19260;SDS011;9764;48.114;11.670;2023-04-16T05:03:10;20.70;;;9.43;;
19260;SDS011;9764;48.114;11.670;2023-04-16T05:05:38;16.38;;;7.93;;
19260;SDS011;9764;48.114;11.670;2023-04-16T05:08:07;18.63;;;8.38;;
19260;SDS011;9764;48.114;11.670;2023-04-16T05:10:35;17.48;;;7.85;;
19260;SDS011;9764;48.114;11.670;2023-04-16T05:13:03;20.65;;;9.57;;
19260;SDS011;9764;48.114;11.670;2023-04-16T05:15:33;19.75;;;9.48;;
19260;SDS011;9764;48.114;11.670;2023-04-16T05:18:02;23.20;;;8.80;;
19260;SDS011;9764;48.114;11.670;2023-04-16T05:20:31;22.08;;;9.20;;
19260;SDS011;9764;48.114;11.670;2023-04-16T05:23:00;18.13;;;9.20;;
19260;SDS011;9764;48.114;11.670;2023-04-16T05:25:28;19.67;;;9.10;;
19260;SDS011;9764;48.114;11.670;2023-04-16T05:27:56;20.30;;;9.15;;
19260;SDS011;9764;48.114;11.670;2023-04-16T05:30:24;18.92;;;9.05;;
19260;SDS011;9764;48.114;11.670;2023-04-16T05:32:52;16.13;;;8.23;;
19260;SDS011;9764;48.114;11.670;2023-04-16T05:35:22;21.42;;;9.38;;
19260;SDS011;9764;48.114;11.670;2023-04-16T05:37:50;22.48;;;10.27;;
19260;SDS011;9764;48.114;11.670;2023-04-16T05:40:19;21.00;;;9.48;;
19260;SDS011;9764;48.114;11.670;2023-04-16T05:42:47;22.08;;;9.85;;
19260;SDS011;9764;48.114;11.670;2023-04-16T05:45:15;20.52;;;9.60;;
19260;SDS011;9764;48.114;11.670;2023-04-16T05:47:44;17.40;;;9.65;;
19260;SDS011;9764;48.114;11.670;2023-04-16T05:50:12;21.10;;;9.68;;
19260;SDS011;9764;48.114;11.670;2023-04-16T05:52:42;17.50;;;9.00;;
19260;SDS011;9764;48.114;11.670;2023-04-16T05:55:11;22.27;;;9.27;;
19260;SDS011;9764;48.114;11.670;2023-04-16T05:57:39;20.63;;;8.52;;
19260;SDS011;9764;48.114;11.670;2023-04-16T06:00:07;18.85;;;8.57;;
19260;SDS011;9764;48.114;11.670;2023-04-16T06:02:39;18.35;;;9.05;;
19260;SDS011;9764;48.114;11.670;2023-04-16T06:05:08;22.27;;;9.07;;
19260;SDS011;9764;48.114;11.670;2023-04-16T06:07:36;20.50;;;9.43;;
19260;SDS011;9764;48.114;11.670;2023-04-16T06:10:06;17.98;;;8.15;;
19260;SDS011;9764;48.114;11.670;2023-04-16T06:12:35;13.10;;;7.22;;
19260;SDS011;9764;48.114;11.670;2023-04-16T06:15:03;21.55;;;9.25;;
19260;SDS011;9764;48.114;11.670;2023-04-16T06:17:32;16.67;;;8.20;;
19260;SDS011;9764;48.114;11.670;2023-04-16T06:20:01;18.42;;;8.50;;
19260;SDS011;9764;48.114;11.670;2023-04-16T06:22:30;21.23;;;8.88;;
19260;SDS011;9764;48.114;11.670;2023-04-16T06:24:58;14.68;;;8.00;;
19260;SDS011;9764;48.114;11.670;2023-04-16T06:27:28;19.65;;;8.32;;
19260;SDS011;9764;48.114;11.670;2023-04-16T06:29:57;21.80;;;8.88;;
19260;SDS011;9764;48.114;11.670;2023-04-16T06:32:25;19.98;;;8.88;;
19260;SDS011;9764;48.114;11.670;2023-04-16T06:34:53;17.58;;;8.05;;
19260;SDS011;9764;48.114;11.670;2023-04-16T06:37:24;21.30;;;8.75;;
19260;SDS011;9764;48.114;11.670;2023-04-16T06:39:52;17.13;;;8.80;;
19260;SDS011;9764;48.114;11.670;2023-04-16T06:42:20;16.83;;;8.10;;
19260;SDS011;9764;48.114;11.670;2023-04-16T06:44:51;16.90;;;7.43;;
19260;SDS011;9764;48.114;11.670;2023-04-16T06:47:19;15.52;;;8.43;;
19260;SDS011;9764;48.114;11.670;2023-04-16T06:49:47;15.18;;;7.90;;
19260;SDS011;9764;48.114;11.670;2023-04-16T06:52:15;18.23;;;8.07;;
19260;SDS011;9764;48.114;11.670;2023-04-16T06:54:44;15.57;;;7.38;;
19260;SDS011;9764;48.114;11.670;2023-04-16T06:57:12;15.25;;;7.65;;
19260;SDS011;9764;48.114;11.670;2023-04-16T06:59:41;17.65;;;7.97;;
19260;SDS011;9764;48.114;11.670;2023-04-16T07:02:11;17.90;;;7.82;;
19260;SDS011;9764;48.114;11.670;2023-04-16T07:04:40;20.23;;;8.32;;
19260;SDS011;9764;48.114;11.670;2023-04-16T07:07:08;16.42;;;7.57;;
19260;SDS011;9764;48.114;11.670;2023-04-16T07:09:36;18.02;;;7.13;;
19260;SDS011;9764;48.114;11.670;2023-04-16T07:12:05;16.42;;;7.75;;
19260;SDS011;9764;48.114;11.670;2023-04-16T07:14:33;17.83;;;7.75;;
19260;SDS011;9764;48.114;11.670;2023-04-16T07:17:02;15.65;;;7.68;;
19260;SDS011;9764;48.114;11.670;2023-04-16T07:19:32;16.17;;;7.55;;
19260;SDS011;9764;48.114;11.670;2023-04-16T07:22:00;15.43;;;7.00;;
19260;SDS011;9764;48.114;11.670;2023-04-16T07:24:29;13.80;;;6.82;;
19260;SDS011;9764;48.114;11.670;2023-04-16T07:26:57;16.58;;;7.07;;
19260;SDS011;9764;48.114;11.670;2023-04-16T07:29:26;13.45;;;6.82;;
19260;SDS011;9764;48.114;11.670;2023-04-16T07:31:54;14.93;;;6.68;;
19260;SDS011;9764;48.114;11.670;2023-04-16T07:34:22;14.55;;;6.80;;
19260;SDS011;9764;48.114;11.670;2023-04-16T07:36:52;10.73;;;6.32;;
19260;SDS011;9764;48.114;11.670;2023-04-16T07:39:21;14.35;;;6.30;;
19260;SDS011;9764;48.114;11.670;2023-04-16T07:41:49;13.02;;;6.40;;
19260;SDS011;9764;48.114;11.670;2023-04-16T07:44:17;15.93;;;7.10;;
19260;SDS011;9764;48.114;11.670;2023-04-16T07:46:46;14.68;;;6.80;;
19260;SDS011;9764;48.114;11.670;2023-04-16T07:49:14;14.65;;;6.72;;
19260;SDS011;9764;48.114;11.670;2023-04-16T07:51:42;15.32;;;6.22;;
19260;SDS011;9764;48.114;11.670;2023-04-16T07:54:12;13.02;;;6.40;;
19260;SDS011;9764;48.114;11.670;2023-04-16T07:56:41;14.13;;;6.45;;
19260;SDS011;9764;48.114;11.670;2023-04-16T07:59:09;13.32;;;6.18;;
19260;SDS011;9764;48.114;11.670;2023-04-16T08:01:48;11.15;;;5.75;;
19260;SDS011;9764;48.114;11.670;2023-04-16T08:04:20;13.13;;;5.55;;
19260;SDS011;9764;48.114;11.670;2023-04-16T08:06:51;13.07;;;6.05;;
19260;SDS011;9764;48.114;11.670;2023-04-16T08:09:21;11.05;;;5.07;;
19260;SDS011;9764;48.114;11.670;2023-04-16T08:11:50;11.75;;;5.40;;
19260;SDS011;9764;48.114;11.670;2023-04-16T08:14:18;11.93;;;6.05;;
19260;SDS011;9764;48.114;11.670;2023-04-16T08:16:48;12.20;;;5.32;;
19260;SDS011;9764;48.114;11.670;2023-04-16T08:19:16;12.10;;;5.30;;
19260;SDS011;9764;48.114;11.670;2023-04-16T08:21:45;12.10;;;5.70;;
19260;SDS011;9764;48.114;11.670;2023-04-16T08:24:14;10.27;;;5.05;;
19260;SDS011;9764;48.114;11.670;2023-04-16T08:26:43;9.65;;;5.13;;
19260;SDS011;9764;48.114;11.670;2023-04-16T08:29:11;12.23;;;5.32;;
19260;SDS011;9764;48.114;11.670;2023-04-16T08:31:40;9.90;;;5.05;;
19260;SDS011;9764;48.114;11.670;2023-04-16T08:34:09;14.95;;;5.40;;
19260;SDS011;9764;48.114;11.670;2023-04-16T08:36:38;12.20;;;5.57;;
19260;SDS011;9764;48.114;11.670;2023-04-16T08:39:07;9.65;;;4.70;;
19260;SDS011;9764;48.114;11.670;2023-04-16T08:41:37;10.30;;;5.40;;
19260;SDS011;9764;48.114;11.670;2023-04-16T08:44:10;9.75;;;4.97;;
19260;SDS011;9764;48.114;11.670;2023-04-16T08:46:43;9.80;;;4.97;;
19260;SDS011;9764;48.114;11.670;2023-04-16T08:49:14;10.40;;;4.53;;
19260;SDS011;9764;48.114;11.670;2023-04-16T08:51:45;7.82;;;4.50;;
19260;SDS011;9764;48.114;11.670;2023-04-16T08:54:20;8.07;;;4.15;;
19260;SDS011;9764;48.114;11.670;2023-04-16T08:56:58;10.40;;;4.50;;
19260;SDS011;9764;48.114;11.670;2023-04-16T08:59:30;6.50;;;3.80;;
19260;SDS011;9764;48.114;11.670;2023-04-16T09:01:59;9.80;;;4.53;;
19260;SDS011;9764;48.114;11.670;2023-04-16T09:04:29;7.43;;;4.45;;
19260;SDS011;9764;48.114;11.670;2023-04-16T09:06:59;9.73;;;5.05;;
19260;SDS011;9764;48.114;11.670;2023-04-16T09:09:31;6.82;;;3.90;;
19260;SDS011;9764;48.114;11.670;2023-04-16T09:12:00;6.60;;;4.13;;
19260;SDS011;9764;48.114;11.670;2023-04-16T09:14:30;7.60;;;4.07;;
19260;SDS011;9764;48.114;11.670;2023-04-16T09:16:58;7.85;;;4.43;;
19260;SDS011;9764;48.114;11.670;2023-04-16T09:19:28;8.52;;;4.25;;
19260;SDS011;9764;48.114;11.670;2023-04-16T09:21:56;8.07;;;3.90;;
19260;SDS011;9764;48.114;11.670;2023-04-16T09:24:24;6.97;;;3.88;;
19260;SDS011;9764;48.114;11.670;2023-04-16T09:26:53;6.38;;;3.75;;
19260;SDS011;9764;48.114;11.670;2023-04-16T09:29:33;6.93;;;3.58;;
19260;SDS011;9764;48.114;11.670;2023-04-16T09:32:03;8.40;;;3.70;;
19260;SDS011;9764;48.114;11.670;2023-04-16T09:34:32;6.88;;;3.75;;
19260;SDS011;9764;48.114;11.670;2023-04-16T09:37:13;6.05;;;3.50;;
19260;SDS011;9764;48.114;11.670;2023-04-16T09:39:42;7.63;;;4.10;;
19260;SDS011;9764;48.114;11.670;2023-04-16T09:42:12;7.43;;;4.00;;
19260;SDS011;9764;48.114;11.670;2023-04-16T09:44:42;7.15;;;4.30;;
19260;SDS011;9764;48.114;11.670;2023-04-16T09:47:11;5.47;;;3.45;;
19260;SDS011;9764;48.114;11.670;2023-04-16T09:49:40;6.88;;;3.72;;
19260;SDS011;9764;48.114;11.670;2023-04-16T09:52:11;6.75;;;3.50;;
19260;SDS011;9764;48.114;11.670;2023-04-16T09:54:47;4.97;;;3.30;;
19260;SDS011;9764;48.114;11.670;2023-04-16T09:57:19;6.55;;;3.92;;
19260;SDS011;9764;48.114;11.670;2023-04-16T09:59:51;6.53;;;3.55;;
19260;SDS011;9764;48.114;11.670;2023-04-16T10:02:20;5.65;;;3.30;;
19260;SDS011;9764;48.114;11.670;2023-04-16T10:04:53;8.13;;;3.70;;
19260;SDS011;9764;48.114;11.670;2023-04-16T10:07:26;9.02;;;4.00;;
19260;SDS011;9764;48.114;11.670;2023-04-16T10:09:56;5.43;;;3.17;;
19260;SDS011;9764;48.114;11.670;2023-04-16T10:12:25;5.65;;;3.25;;
19260;SDS011;9764;48.114;11.670;2023-04-16T10:14:55;5.40;;;3.45;;
19260;SDS011;9764;48.114;11.670;2023-04-16T10:17:24;7.68;;;3.20;;
19260;SDS011;9764;48.114;11.670;2023-04-16T10:19:55;8.30;;;3.13;;
19260;SDS011;9764;48.114;11.670;2023-04-16T10:22:24;6.13;;;3.63;;
19260;SDS011;9764;48.114;11.670;2023-04-16T10:24:53;4.82;;;2.97;;
19260;SDS011;9764;48.114;11.670;2023-04-16T10:27:22;5.68;;;3.25;;
19260;SDS011;9764;48.114;11.670;2023-04-16T10:29:51;4.97;;;3.00;;
19260;SDS011;9764;48.114;11.670;2023-04-16T10:32:20;4.47;;;2.53;;
19260;SDS011;9764;48.114;11.670;2023-04-16T10:34:54;6.28;;;3.28;;
19260;SDS011;9764;48.114;11.670;2023-04-16T10:37:27;4.97;;;3.25;;
19260;SDS011;9764;48.114;11.670;2023-04-16T10:39:56;4.68;;;3.08;;
19260;SDS011;9764;48.114;11.670;2023-04-16T10:42:25;5.35;;;2.97;;
19260;SDS011;9764;48.114;11.670;2023-04-16T10:44:54;5.45;;;3.13;;
19260;SDS011;9764;48.114;11.670;2023-04-16T10:47:28;5.20;;;2.85;;
19260;SDS011;9764;48.114;11.670;2023-04-16T10:49:57;5.22;;;2.90;;
19260;SDS011;9764;48.114;11.670;2023-04-16T10:52:25;4.85;;;2.67;;
19260;SDS011;9764;48.114;11.670;2023-04-16T10:54:56;5.22;;;3.03;;
19260;SDS011;9764;48.114;11.670;2023-04-16T10:57:26;5.22;;;2.72;;
19260;SDS011;9764;48.114;11.670;2023-04-16T10:59:56;5.05;;;2.97;;
19260;SDS011;9764;48.114;11.670;2023-04-16T11:02:27;4.10;;;2.67;;
19260;SDS011;9764;48.114;11.670;2023-04-16T11:04:56;4.32;;;2.60;;
19260;SDS011;9764;48.114;11.670;2023-04-16T11:07:31;4.38;;;2.65;;
19260;SDS011;9764;48.114;11.670;2023-04-16T11:10:02;4.40;;;2.97;;
19260;SDS011;9764;48.114;11.670;2023-04-16T11:12:32;5.28;;;2.83;;
19260;SDS011;9764;48.114;11.670;2023-04-16T11:15:04;4.43;;;2.97;;
19260;SDS011;9764;48.114;11.670;2023-04-16T11:17:37;3.08;;;2.53;;
19260;SDS011;9764;48.114;11.670;2023-04-16T11:20:07;5.93;;;2.80;;
19260;SDS011;9764;48.114;11.670;2023-04-16T11:22:44;3.42;;;2.47;;
19260;SDS011;9764;48.114;11.670;2023-04-16T11:25:14;5.00;;;2.88;;
19260;SDS011;9764;48.114;11.670;2023-04-16T11:27:46;4.15;;;2.58;;
19260;SDS011;9764;48.114;11.670;2023-04-16T11:30:15;5.30;;;3.00;;
19260;SDS011;9764;48.114;11.670;2023-04-16T11:32:45;5.20;;;3.05;;
19260;SDS011;9764;48.114;11.670;2023-04-16T11:35:14;3.45;;;2.50;;
19260;SDS011;9764;48.114;11.670;2023-04-16T11:37:44;4.40;;;2.60;;
19260;SDS011;9764;48.114;11.670;2023-04-16T11:40:13;3.97;;;2.85;;
19260;SDS011;9764;48.114;11.670;2023-04-16T11:42:42;3.67;;;2.15;;
19260;SDS011;9764;48.114;11.670;2023-04-16T11:45:11;3.67;;;2.60;;
19260;SDS011;9764;48.114;11.670;2023-04-16T11:47:42;3.80;;;2.20;;
19260;SDS011;9764;48.114;11.670;2023-04-16T11:50:17;4.35;;;2.83;;
19260;SDS011;9764;48.114;11.670;2023-04-16T11:52:47;2.63;;;2.28;;
19260;SDS011;9764;48.114;11.670;2023-04-16T11:55:16;4.18;;;2.70;;
19260;SDS011;9764;48.114;11.670;2023-04-16T11:57:44;3.20;;;2.30;;
19260;SDS011;9764;48.114;11.670;2023-04-16T12:00:13;3.58;;;2.42;;
19260;SDS011;9764;48.114;11.670;2023-04-16T12:02:43;4.15;;;2.58;;
19260;SDS011;9764;48.114;11.670;2023-04-16T12:05:28;4.90;;;2.50;;
19260;SDS011;9764;48.114;11.670;2023-04-16T12:07:58;4.38;;;2.50;;
19260;SDS011;9764;48.114;11.670;2023-04-16T12:10:27;3.40;;;2.50;;
19260;SDS011;9764;48.114;11.670;2023-04-16T12:13:08;4.25;;;2.80;;
19260;SDS011;9764;48.114;11.670;2023-04-16T12:15:45;2.72;;;2.00;;
19260;SDS011;9764;48.114;11.670;2023-04-16T12:18:14;3.28;;;2.28;;
19260;SDS011;9764;48.114;11.670;2023-04-16T12:20:44;3.72;;;2.60;;
19260;SDS011;9764;48.114;11.670;2023-04-16T12:23:23;3.10;;;2.25;;
19260;SDS011;9764;48.114;11.670;2023-04-16T12:25:52;2.45;;;2.00;;
19260;SDS011;9764;48.114;11.670;2023-04-16T12:28:28;2.88;;;2.20;;
19260;SDS011;9764;48.114;11.670;2023-04-16T12:30:57;3.00;;;2.30;;
19260;SDS011;9764;48.114;11.670;2023-04-16T12:33:26;4.43;;;2.47;;
19260;SDS011;9764;48.114;11.670;2023-04-16T12:35:56;3.35;;;2.33;;
19260;SDS011;9764;48.114;11.670;2023-04-16T12:38:25;3.83;;;2.47;;
19260;SDS011;9764;48.114;11.670;2023-04-16T12:40:53;3.35;;;2.35;;
19260;SDS011;9764;48.114;11.670;2023-04-16T12:43:23;3.58;;;2.00;;
19260;SDS011;9764;48.114;11.670;2023-04-16T12:45:51;3.17;;;2.00;;
19260;SDS011;9764;48.114;11.670;2023-04-16T12:48:20;3.40;;;2.20;;
19260;SDS011;9764;48.114;11.670;2023-04-16T12:50:48;3.25;;;2.40;;
19260;SDS011;9764;48.114;11.670;2023-04-16T12:53:18;2.38;;;2.03;;
19260;SDS011;9764;48.114;11.670;2023-04-16T12:55:46;3.42;;;2.00;;
19260;SDS011;9764;48.114;11.670;2023-04-16T12:58:15;2.97;;;2.10;;
19260;SDS011;9764;48.114;11.670;2023-04-16T13:00:43;2.65;;;1.98;;
19260;SDS011;9764;48.114;11.670;2023-04-16T13:03:11;2.80;;;2.13;;
19260;SDS011;9764;48.114;11.670;2023-04-16T13:05:40;2.10;;;1.90;;
19260;SDS011;9764;48.114;11.670;2023-04-16T13:08:09;2.92;;;2.30;;
19260;SDS011;9764;48.114;11.670;2023-04-16T13:10:38;3.08;;;2.20;;
19260;SDS011;9764;48.114;11.670;2023-04-16T13:13:06;4.20;;;2.10;;
19260;SDS011;9764;48.114;11.670;2023-04-16T13:15:35;2.85;;;2.20;;
19260;SDS011;9764;48.114;11.670;2023-04-16T13:18:03;2.92;;;2.20;;
19260;SDS011;9764;48.114;11.670;2023-04-16T13:20:32;3.97;;;2.10;;
19260;SDS011;9764;48.114;11.670;2023-04-16T13:23:00;2.50;;;1.80;;
19260;SDS011;9764;48.114;11.670;2023-04-16T13:25:30;2.38;;;2.08;;
19260;SDS011;9764;48.114;11.670;2023-04-16T13:28:00;2.28;;;1.70;;
19260;SDS011;9764;48.114;11.670;2023-04-16T13:30:28;2.63;;;1.80;;
19260;SDS011;9764;48.114;11.670;2023-04-16T13:32:57;3.03;;;2.08;;
19260;SDS011;9764;48.114;11.670;2023-04-16T13:35:25;2.83;;;2.00;;
19260;SDS011;9764;48.114;11.670;2023-04-16T13:37:54;2.38;;;2.08;;
19260;SDS011;9764;48.114;11.670;2023-04-16T13:40:22;2.83;;;1.90;;
19260;SDS011;9764;48.114;11.670;2023-04-16T13:42:51;2.47;;;1.90;;
19260;SDS011;9764;48.114;11.670;2023-04-16T13:45:20;2.05;;;1.85;;
19260;SDS011;9764;48.114;11.670;2023-04-16T13:47:48;1.95;;;1.63;;
19260;SDS011;9764;48.114;11.670;2023-04-16T13:50:17;3.03;;;2.20;;
19260;SDS011;9764;48.114;11.670;2023-04-16T13:52:45;2.25;;;2.00;;
19260;SDS011;9764;48.114;11.670;2023-04-16T13:55:14;2.28;;;1.80;;
19260;SDS011;9764;48.114;11.670;2023-04-16T13:57:44;2.47;;;1.90;;
19260;SDS011;9764;48.114;11.670;2023-04-16T14:00:14;2.13;;;1.80;;
19260;SDS011;9764;48.114;11.670;2023-04-16T14:02:44;1.85;;;1.75;;
19260;SDS011;9764;48.114;11.670;2023-04-16T14:05:14;1.80;;;1.70;;
19260;SDS011;9764;48.114;11.670;2023-04-16T14:07:42;2.50;;;1.90;;
19260;SDS011;9764;48.114;11.670;2023-04-16T14:10:11;2.88;;;2.00;;
19260;SDS011;9764;48.114;11.670;2023-04-16T14:12:39;2.50;;;1.98;;
19260;SDS011;9764;48.114;11.670;2023-04-16T14:15:08;1.95;;;1.63;;
19260;SDS011;9764;48.114;11.670;2023-04-16T14:17:36;2.40;;;1.75;;
19260;SDS011;9764;48.114;11.670;2023-04-16T14:20:07;1.98;;;1.58;;
19260;SDS011;9764;48.114;11.670;2023-04-16T14:22:36;2.25;;;1.83;;
19260;SDS011;9764;48.114;11.670;2023-04-16T14:25:05;1.88;;;1.70;;
19260;SDS011;9764;48.114;11.670;2023-04-16T14:27:33;3.00;;;2.00;;
19260;SDS011;9764;48.114;11.670;2023-04-16T14:30:02;2.30;;;1.90;;
19260;SDS011;9764;48.114;11.670;2023-04-16T14:32:31;1.95;;;1.75;;
19260;SDS011;9764;48.114;11.670;2023-04-16T14:34:59;2.25;;;1.90;;
19260;SDS011;9764;48.114;11.670;2023-04-16T14:37:29;1.70;;;1.60;;
19260;SDS011;9764;48.114;11.670;2023-04-16T14:39:57;2.10;;;1.70;;
19260;SDS011;9764;48.114;11.670;2023-04-16T14:42:27;1.88;;;1.63;;
19260;SDS011;9764;48.114;11.670;2023-04-16T14:44:55;1.75;;;1.65;;
19260;SDS011;9764;48.114;11.670;2023-04-16T14:47:24;1.85;;;1.65;;
19260;SDS011;9764;48.114;11.670;2023-04-16T14:49:52;1.98;;;1.77;;
19260;SDS011;9764;48.114;11.670;2023-04-16T14:52:20;2.40;;;1.60;;
19260;SDS011;9764;48.114;11.670;2023-04-16T14:54:50;1.92;;;1.70;;
19260;SDS011;9764;48.114;11.670;2023-04-16T14:57:20;2.20;;;1.70;;